createdAt,value
2018-06-25T00:00:59.670Z,79.50
2018-06-25T00:03:28.095Z,79.90
2018-06-25T00:05:56.519Z,79.50
2018-06-25T00:08:24.903Z,79.30
2018-06-25T00:10:53.417Z,79.80
2018-06-25T00:13:21.847Z,79.20
2018-06-25T00:15:50.259Z,79.70
2018-06-25T00:18:18.654Z,80.10
2018-06-25T00:20:47.029Z,80.00
2018-06-25T00:23:15.384Z,80.00
2018-06-25T00:25:43.850Z,79.30
2018-06-25T00:28:12.229Z,79.50
2018-06-25T00:30:40.637Z,79.60
2018-06-25T00:33:09.042Z,79.70
2018-06-25T00:38:05.602Z,80.60
2018-06-25T00:40:34.066Z,80.70
2018-06-25T00:43:02.466Z,81.00
2018-06-25T00:45:30.889Z,81.80
2018-06-25T00:47:59.370Z,81.80
2018-06-25T00:50:27.750Z,81.70
2018-06-25T00:52:56.145Z,81.90
2018-06-25T00:55:24.532Z,81.70
2018-06-25T00:57:52.936Z,81.70
2018-06-25T01:00:21.349Z,82.40
2018-06-25T01:02:49.831Z,82.60
2018-06-25T01:05:18.270Z,82.90
2018-06-25T01:07:46.636Z,83.80
2018-06-25T01:10:15.006Z,83.60
2018-06-25T01:12:43.483Z,84.20
2018-06-25T01:15:11.890Z,85.00
2018-06-25T01:17:40.284Z,85.30
2018-06-25T01:20:08.824Z,84.60
2018-06-25T01:22:37.215Z,84.40
2018-06-25T01:25:05.731Z,84.30
2018-06-25T01:27:34.191Z,84.20
2018-06-25T01:30:02.630Z,84.20
2018-06-25T01:32:31.017Z,83.80
2018-06-25T01:34:59.850Z,83.50
2018-06-25T01:37:28.226Z,83.80
2018-06-25T01:39:56.569Z,83.50
2018-06-25T01:42:25.026Z,83.90
2018-06-25T01:44:53.411Z,84.30
2018-06-25T01:47:21.814Z,84.70
2018-06-25T01:49:50.317Z,85.10
2018-06-25T01:52:18.688Z,84.30
2018-06-25T01:54:47.263Z,83.90
2018-06-25T01:57:15.643Z,84.10
2018-06-25T01:59:44.085Z,83.80
2018-06-25T02:02:12.549Z,84.00
2018-06-25T02:04:40.952Z,83.00
2018-06-25T02:09:37.473Z,83.30
2018-06-25T02:12:05.875Z,82.90
2018-06-25T02:14:34.261Z,83.40
2018-06-25T02:17:02.723Z,83.30
2018-06-25T02:19:31.165Z,83.30
2018-06-25T02:22:00.557Z,83.40
2018-06-25T02:24:29.061Z,83.40
2018-06-25T02:26:57.466Z,83.60
2018-06-25T02:29:25.972Z,84.20
2018-06-25T02:31:54.387Z,84.50
2018-06-25T02:34:22.797Z,83.70
2018-06-25T02:36:51.186Z,83.60
2018-06-25T02:39:19.573Z,83.30
2018-06-25T02:41:47.959Z,83.40
2018-06-25T02:44:16.456Z,84.20
2018-06-25T02:46:44.890Z,83.80
2018-06-25T02:49:13.267Z,84.00
2018-06-25T02:51:41.701Z,84.30
2018-06-25T02:54:10.089Z,84.20
2018-06-25T02:59:06.896Z,84.60
2018-06-25T03:01:35.325Z,84.40
2018-06-25T03:04:03.751Z,84.00
2018-06-25T03:06:32.148Z,84.00
2018-06-25T03:09:00.636Z,84.40
2018-06-25T03:11:29.019Z,84.90
2018-06-25T03:13:57.532Z,85.60
2018-06-25T03:16:25.950Z,85.60
2018-06-25T03:18:54.394Z,85.40
2018-06-25T03:21:22.815Z,85.70
2018-06-25T03:23:51.269Z,85.80
2018-06-25T03:28:47.901Z,85.30
2018-06-25T03:31:16.972Z,85.00
2018-06-25T03:33:45.610Z,85.20
2018-06-25T03:36:14.186Z,85.20
2018-06-25T03:38:42.578Z,85.40
2018-06-25T03:41:11.028Z,84.90
2018-06-25T03:43:39.531Z,84.80
2018-06-25T03:48:36.054Z,84.60
2018-06-25T03:51:04.679Z,84.90
2018-06-25T03:56:01.185Z,85.30
2018-06-25T03:58:29.551Z,84.80
2018-06-25T04:00:58.026Z,86.20
2018-06-25T04:03:26.443Z,85.30
2018-06-25T04:05:54.832Z,85.90
2018-06-25T04:08:23.286Z,85.90
2018-06-25T04:10:51.690Z,86.00
2018-06-25T04:13:20.210Z,85.90
2018-06-25T04:15:48.634Z,86.10
2018-06-25T04:18:17.057Z,86.10
2018-06-25T04:20:45.712Z,86.10
2018-06-25T04:23:14.147Z,85.90
2018-06-25T04:25:42.603Z,86.00
2018-06-25T04:28:10.964Z,85.80
2018-06-25T04:30:39.364Z,85.90
2018-06-25T04:33:08.425Z,85.70
2018-06-25T04:35:36.808Z,86.00
2018-06-25T04:38:05.275Z,86.00
2018-06-25T04:40:33.652Z,85.50
2018-06-25T04:43:02.054Z,84.60
2018-06-25T04:45:30.462Z,84.90
2018-06-25T04:47:58.865Z,85.10
2018-06-25T04:50:27.363Z,85.40
2018-06-25T04:52:55.721Z,85.10
2018-06-25T04:55:24.156Z,85.00
2018-06-25T04:57:52.541Z,84.20
2018-06-25T05:00:20.996Z,84.30
2018-06-25T05:02:49.412Z,84.40
2018-06-25T05:05:18.448Z,83.80
2018-06-25T05:07:46.830Z,83.90
2018-06-25T05:10:15.241Z,83.80
2018-06-25T05:12:43.668Z,83.80
2018-06-25T05:15:12.073Z,83.70
2018-06-25T05:17:40.499Z,82.90
2018-06-25T05:20:08.929Z,82.90
2018-06-25T05:22:37.321Z,83.30
2018-06-25T05:25:05.751Z,82.00
2018-06-25T05:27:35.367Z,81.90
2018-06-25T05:30:03.922Z,82.40
2018-06-25T05:32:32.606Z,83.30
2018-06-25T05:35:01.368Z,82.30
2018-06-25T05:37:29.750Z,83.30
2018-06-25T05:39:58.215Z,83.30
2018-06-25T05:42:26.594Z,83.00
2018-06-25T05:44:55.060Z,82.80
2018-06-25T05:47:23.542Z,82.40
2018-06-25T05:49:51.925Z,81.90
2018-06-25T05:52:20.301Z,82.00
2018-06-25T05:54:49.239Z,82.20
2018-06-25T05:57:17.610Z,81.80
2018-06-25T05:59:45.994Z,80.90
2018-06-25T06:04:42.946Z,81.10
2018-06-25T06:07:11.374Z,80.50
2018-06-25T06:09:39.789Z,81.30
2018-06-25T06:12:08.195Z,81.40
2018-06-25T06:17:04.727Z,80.40
2018-06-25T06:19:33.219Z,80.80
2018-06-25T06:22:02.495Z,80.00
2018-06-25T06:24:31.465Z,80.10
2018-06-25T06:27:00.034Z,79.30
2018-06-25T06:29:28.400Z,78.60
2018-06-25T06:31:57.180Z,77.90
2018-06-25T06:34:25.652Z,78.40
2018-06-25T06:36:54.164Z,77.50
2018-06-25T06:39:22.594Z,77.50
2018-06-25T06:41:51.010Z,77.50
2018-06-25T06:44:19.467Z,77.90
2018-06-25T06:46:47.887Z,77.40
2018-06-25T06:49:16.388Z,77.40
2018-06-25T06:51:44.779Z,78.30
2018-06-25T06:54:13.225Z,77.60
2018-06-25T06:56:41.653Z,77.60
2018-06-25T06:59:10.040Z,77.20
2018-06-25T07:01:38.449Z,77.60
2018-06-25T07:04:06.871Z,78.50
2018-06-25T07:06:35.355Z,76.30
2018-06-25T07:09:06.148Z,76.40
2018-06-25T07:11:34.532Z,76.20
2018-06-25T07:16:31.055Z,76.60
2018-06-25T07:18:59.579Z,76.80
2018-06-25T07:21:28.075Z,76.80
2018-06-25T07:23:56.463Z,77.40
2018-06-25T07:26:25.764Z,76.30
2018-06-25T07:28:55.441Z,76.50
2018-06-25T07:31:23.977Z,76.20
2018-06-25T07:33:52.418Z,75.70
2018-06-25T07:38:48.941Z,75.80
2018-06-25T07:41:17.956Z,76.60
2018-06-25T07:43:46.722Z,77.10
2018-06-25T07:46:15.207Z,76.00
2018-06-25T07:48:44.429Z,76.00
2018-06-25T07:51:12.966Z,74.80
2018-06-25T07:53:41.483Z,75.10
2018-06-25T07:56:09.813Z,74.80
2018-06-25T07:58:38.183Z,75.30
2018-06-25T08:01:06.831Z,74.90
2018-06-25T08:03:35.280Z,74.40
2018-06-25T08:06:03.754Z,74.50
2018-06-25T08:08:32.173Z,74.90
2018-06-25T08:11:00.851Z,73.50
2018-06-25T08:13:29.258Z,75.00
2018-06-25T08:15:57.646Z,74.60
2018-06-25T08:18:26.045Z,74.40
2018-06-25T08:20:54.439Z,74.60
2018-06-25T08:23:23.491Z,74.10
2018-06-25T08:25:51.990Z,72.90
2018-06-25T08:28:20.361Z,72.60
2018-06-25T08:30:48.799Z,73.20
2018-06-25T08:33:17.253Z,72.10
2018-06-25T08:35:45.753Z,72.40
2018-06-25T08:38:14.163Z,70.90
2018-06-25T08:40:42.597Z,70.00
2018-06-25T08:43:11.056Z,69.20
2018-06-25T08:50:35.706Z,72.00
2018-06-25T08:53:04.192Z,70.70
2018-06-25T08:58:00.805Z,69.80
2018-06-25T09:00:29.186Z,68.90
2018-06-25T09:02:57.624Z,67.70
2018-06-25T09:05:26.016Z,68.60
2018-06-25T09:07:54.474Z,66.50
2018-06-25T09:10:22.883Z,67.10
2018-06-25T09:12:51.333Z,68.50
2018-06-25T09:15:19.817Z,68.00
2018-06-25T09:17:48.150Z,67.60
2018-06-25T09:20:16.525Z,68.30
2018-06-25T09:22:44.975Z,67.70
2018-06-25T09:25:13.417Z,67.60
2018-06-25T09:27:48.597Z,66.90
2018-06-25T09:30:18.350Z,66.00
2018-06-25T09:32:46.720Z,65.10
2018-06-25T09:35:15.129Z,66.40
2018-06-25T09:37:43.660Z,66.70
2018-06-25T09:40:12.079Z,68.30
2018-06-25T09:42:40.514Z,69.40
2018-06-25T09:45:10.223Z,68.30
2018-06-25T09:47:38.602Z,68.50
2018-06-25T09:50:07.019Z,67.50
2018-06-25T09:52:35.437Z,67.60
2018-06-25T09:55:03.976Z,69.10
2018-06-25T09:57:32.505Z,68.10
2018-06-25T10:00:00.930Z,67.50
2018-06-25T10:02:29.325Z,69.30
2018-06-25T10:04:57.768Z,68.50
2018-06-25T10:07:26.202Z,69.70
2018-06-25T10:09:54.642Z,67.80
2018-06-25T10:12:23.056Z,68.80
2018-06-25T10:14:51.470Z,68.40
2018-06-25T10:17:19.853Z,67.80
2018-06-25T10:19:48.265Z,68.10
2018-06-25T10:22:16.691Z,69.10
2018-06-25T10:24:45.097Z,67.70
2018-06-25T10:27:13.510Z,67.80
2018-06-25T10:29:41.918Z,67.20
2018-06-25T10:32:10.323Z,66.30
2018-06-25T10:34:38.696Z,66.20
2018-06-25T10:37:07.124Z,65.00
2018-06-25T10:39:35.634Z,66.20
2018-06-25T10:42:04.179Z,64.80
2018-06-25T10:44:32.610Z,66.00
2018-06-25T10:47:01.138Z,65.30
2018-06-25T10:51:57.674Z,64.40
2018-06-25T10:54:26.104Z,64.30
2018-06-25T10:56:54.540Z,64.80
2018-06-25T10:59:23.077Z,64.30
2018-06-25T11:01:51.396Z,64.50
2018-06-25T11:04:19.855Z,62.50
2018-06-25T11:06:48.283Z,62.40
2018-06-25T11:09:17.347Z,59.20
2018-06-25T11:11:45.872Z,59.50
2018-06-25T11:14:14.292Z,57.80
2018-06-25T11:16:42.694Z,58.40
2018-06-25T11:19:11.101Z,55.80
2018-06-25T11:21:39.552Z,54.30
2018-06-25T11:24:08.032Z,53.90
2018-06-25T11:26:36.474Z,53.80
2018-06-25T11:29:05.027Z,54.70
2018-06-25T11:31:33.434Z,54.70
2018-06-25T11:34:02.148Z,55.50
2018-06-25T11:36:30.530Z,57.50
2018-06-25T11:38:59.006Z,57.40
2018-06-25T11:41:27.411Z,55.90
2018-06-25T11:43:55.933Z,54.00
2018-06-25T11:46:25.193Z,55.90
2018-06-25T11:48:53.626Z,56.70
2018-06-25T11:51:22.798Z,57.00
2018-06-25T11:53:51.170Z,57.90
2018-06-25T11:56:19.640Z,57.70
2018-06-25T11:58:48.042Z,54.40
2018-06-25T12:01:16.481Z,51.10
2018-06-25T12:03:44.936Z,49.30
2018-06-25T12:06:13.302Z,51.70
2018-06-25T12:11:09.819Z,50.90
2018-06-25T12:13:38.184Z,50.30
2018-06-25T12:16:06.669Z,49.50
2018-06-25T12:18:35.073Z,49.70
2018-06-25T12:21:03.506Z,50.50
2018-06-25T12:23:31.946Z,51.20
2018-06-25T12:26:00.359Z,49.30
2018-06-25T12:28:28.725Z,49.20
2018-06-25T12:30:57.129Z,48.80
2018-06-25T12:33:25.525Z,47.50
2018-06-25T12:35:54.053Z,48.10
2018-06-25T12:38:22.481Z,47.30
2018-06-25T12:40:50.940Z,49.10
2018-06-25T12:45:47.618Z,43.10
2018-06-25T12:48:16.044Z,42.30
2018-06-25T12:50:44.457Z,40.90
2018-06-25T12:55:40.943Z,44.30
2018-06-25T12:58:09.354Z,44.50
2018-06-25T13:00:37.792Z,44.60
2018-06-25T13:03:06.748Z,46.80
2018-06-25T13:05:35.207Z,46.80
2018-06-25T13:08:03.630Z,45.80
2018-06-25T13:10:32.044Z,45.00
2018-06-25T13:13:00.440Z,45.20
2018-06-25T13:15:28.819Z,45.10
2018-06-25T13:17:57.233Z,43.30
2018-06-25T13:20:25.656Z,44.00
2018-06-25T13:22:54.033Z,46.50
2018-06-25T13:25:22.439Z,43.80
2018-06-25T13:27:50.868Z,44.70
2018-06-25T13:30:19.298Z,43.00
2018-06-25T13:32:47.812Z,43.40
2018-06-25T13:35:16.392Z,45.10
2018-06-25T13:37:44.837Z,43.90
2018-06-25T13:40:14.117Z,47.10
2018-06-25T13:42:42.561Z,43.70
2018-06-25T13:45:10.981Z,43.60
2018-06-25T13:47:39.387Z,44.60
2018-06-25T13:50:07.853Z,44.40
2018-06-25T13:52:36.325Z,44.00
2018-06-25T13:55:04.780Z,42.90
2018-06-25T13:57:33.174Z,42.80
2018-06-25T14:00:01.560Z,41.60
2018-06-25T14:04:58.228Z,42.20
2018-06-25T14:07:26.634Z,42.60
2018-06-25T14:09:55.159Z,43.60
2018-06-25T14:12:23.521Z,43.10
2018-06-25T14:14:51.948Z,43.30
2018-06-25T14:17:20.461Z,43.90
2018-06-25T14:19:48.946Z,44.10
2018-06-25T14:22:17.461Z,42.50
2018-06-25T14:24:51.155Z,40.60
2018-06-25T14:27:20.223Z,40.50
2018-06-25T14:29:48.888Z,41.50
2018-06-25T14:32:22.753Z,41.10
2018-06-25T14:34:56.395Z,41.90
2018-06-25T14:39:52.947Z,42.40
2018-06-25T14:42:21.352Z,41.40
2018-06-25T14:44:49.807Z,42.50
2018-06-25T14:47:18.621Z,43.70
2018-06-25T14:49:47.060Z,42.00
2018-06-25T14:52:15.594Z,42.50
2018-06-25T14:54:44.296Z,43.40
2018-06-25T14:57:12.692Z,42.30
2018-06-25T14:59:42.039Z,44.10
2018-06-25T15:04:39.412Z,43.70
2018-06-25T15:09:36.497Z,42.30
2018-06-25T15:12:04.906Z,43.00
2018-06-25T15:14:33.338Z,43.30
2018-06-25T15:17:02.005Z,41.70
2018-06-25T15:19:30.439Z,44.20
2018-06-25T15:21:58.810Z,43.80
2018-06-25T15:24:27.362Z,44.40
2018-06-25T15:26:55.757Z,43.10
2018-06-25T15:31:52.313Z,43.60
2018-06-25T15:34:20.700Z,44.90
2018-06-25T15:36:49.157Z,44.60
2018-06-25T15:39:18.464Z,45.80
2018-06-25T15:41:46.962Z,44.50
2018-06-25T15:46:43.516Z,45.50
2018-06-25T15:49:11.990Z,44.50
2018-06-25T15:51:40.409Z,45.80
2018-06-25T15:54:08.894Z,43.50
2018-06-25T15:56:37.289Z,45.30
2018-06-25T15:59:05.681Z,44.30
2018-06-25T16:01:34.130Z,45.80
2018-06-25T16:04:05.112Z,45.70
2018-06-25T16:06:33.736Z,45.20
2018-06-25T16:09:02.176Z,45.30
2018-06-25T16:11:30.530Z,45.40
2018-06-25T16:13:58.941Z,46.70
2018-06-25T16:16:27.934Z,46.30
2018-06-25T16:18:56.406Z,46.30
2018-06-25T16:21:24.915Z,45.60
2018-06-25T16:23:53.450Z,45.20
2018-06-25T16:26:23.728Z,45.60
2018-06-25T16:28:52.177Z,45.30
2018-06-25T16:31:20.632Z,45.40
2018-06-25T16:33:49.147Z,46.50
2018-06-25T16:36:17.538Z,46.00
2018-06-25T16:38:45.998Z,45.10
2018-06-25T16:41:14.480Z,45.90
2018-06-25T16:43:42.892Z,46.10
2018-06-25T16:46:11.375Z,46.60
2018-06-25T16:48:39.852Z,46.30
2018-06-25T16:51:08.254Z,45.90
2018-06-25T16:53:36.681Z,46.90
2018-06-25T16:56:05.141Z,46.30
2018-06-25T16:58:33.557Z,46.60
2018-06-25T17:01:01.949Z,47.70
2018-06-25T17:03:30.437Z,47.50
2018-06-25T17:05:59.106Z,47.60
2018-06-25T17:08:28.275Z,47.00
2018-06-25T17:10:57.057Z,46.10
2018-06-25T17:13:25.567Z,47.10
2018-06-25T17:15:54.041Z,47.20
2018-06-25T17:18:22.416Z,47.30
2018-06-25T17:20:50.846Z,47.10
2018-06-25T17:23:19.283Z,47.60
2018-06-25T17:25:47.719Z,47.70
2018-06-25T17:28:16.188Z,47.80
2018-06-25T17:30:44.590Z,47.70
2018-06-25T17:33:13.025Z,47.90
2018-06-25T17:35:41.460Z,47.40
2018-06-25T17:38:09.963Z,48.20
2018-06-25T17:40:38.586Z,48.80
2018-06-25T17:43:07.014Z,48.80
2018-06-25T17:45:35.441Z,47.70
2018-06-25T17:48:03.972Z,47.50
2018-06-25T17:50:32.442Z,49.10
2018-06-25T17:53:00.863Z,50.10
2018-06-25T17:55:29.383Z,49.70
2018-06-25T17:57:57.918Z,48.80
2018-06-25T18:00:26.336Z,50.30
2018-06-25T18:02:54.829Z,49.50
2018-06-25T18:05:23.274Z,49.90
2018-06-25T18:07:51.759Z,50.70
2018-06-25T18:10:20.246Z,51.10
2018-06-25T18:12:48.673Z,51.80
2018-06-25T18:15:17.182Z,52.60
2018-06-25T18:17:45.723Z,53.10
2018-06-25T18:20:14.111Z,54.10
2018-06-25T18:22:42.500Z,56.50
2018-06-25T18:25:10.942Z,55.40
2018-06-25T18:27:39.382Z,56.00
2018-06-25T18:30:08.029Z,56.10
2018-06-25T18:32:38.217Z,56.60
2018-06-25T18:35:06.703Z,55.30
2018-06-25T18:37:35.094Z,55.50
2018-06-25T18:40:03.660Z,54.70
2018-06-25T18:42:32.150Z,55.20
2018-06-25T18:45:00.562Z,54.60
2018-06-25T18:47:29.016Z,54.50
2018-06-25T18:49:57.430Z,55.90
2018-06-25T18:52:26.167Z,55.50
2018-06-25T18:54:54.959Z,56.10
2018-06-25T18:57:23.382Z,56.90
2018-06-25T18:59:51.838Z,57.00
2018-06-25T19:02:20.337Z,57.00
2018-06-25T19:04:48.765Z,56.70
2018-06-25T19:07:17.246Z,56.80
2018-06-25T19:09:45.662Z,55.20
2018-06-25T19:14:42.345Z,56.70
2018-06-25T19:17:10.815Z,57.30
2018-06-25T19:19:39.177Z,56.80
2018-06-25T19:24:35.992Z,57.70
2018-06-25T19:27:04.414Z,58.10
2018-06-25T19:29:32.892Z,58.50
2018-06-25T19:32:01.308Z,58.90
2018-06-25T19:34:29.733Z,58.20
2018-06-25T19:36:58.670Z,57.80
2018-06-25T19:39:27.248Z,57.90
2018-06-25T19:41:56.026Z,58.20
2018-06-25T19:44:24.894Z,58.70
2018-06-25T19:46:53.512Z,58.40
2018-06-25T19:49:21.884Z,58.00
2018-06-25T19:51:51.349Z,58.30
2018-06-25T19:54:19.796Z,58.00
2018-06-25T19:56:50.421Z,58.50
2018-06-25T19:59:18.979Z,58.80
2018-06-25T20:01:47.464Z,58.70
2018-06-25T20:04:15.937Z,59.40
2018-06-25T20:06:44.541Z,59.70
2018-06-25T20:11:42.196Z,60.60
2018-06-25T20:14:10.697Z,60.90
2018-06-25T20:16:39.212Z,62.00
2018-06-25T20:19:07.658Z,62.60
2018-06-25T20:21:36.092Z,61.00
2018-06-25T20:24:04.671Z,61.10
2018-06-25T20:26:33.200Z,59.60
2018-06-25T20:29:01.622Z,54.90
2018-06-25T20:31:30.129Z,51.50
2018-06-25T20:33:58.591Z,50.30
2018-06-25T20:36:27.082Z,50.10
2018-06-25T20:38:55.464Z,49.80
2018-06-25T20:41:23.944Z,50.70
2018-06-25T20:43:52.468Z,50.90
2018-06-25T20:46:20.904Z,48.90
2018-06-25T20:48:49.388Z,47.70
2018-06-25T20:51:17.851Z,48.00
2018-06-25T20:56:14.444Z,48.60
2018-06-25T20:58:42.915Z,49.00
2018-06-25T21:01:11.349Z,49.10
2018-06-25T21:03:39.811Z,50.30
2018-06-25T21:06:08.298Z,50.50
2018-06-25T21:08:36.723Z,51.50
2018-06-25T21:11:05.746Z,51.40
2018-06-25T21:13:34.136Z,52.90
2018-06-25T21:16:02.614Z,52.30
2018-06-25T21:18:31.020Z,53.40
2018-06-25T21:20:59.538Z,53.10
2018-06-25T21:23:27.986Z,53.20
2018-06-25T21:25:56.398Z,53.50
2018-06-25T21:28:24.841Z,53.60
2018-06-25T21:30:53.255Z,54.60
2018-06-25T21:33:21.657Z,54.70
2018-06-25T21:35:50.391Z,55.10
2018-06-25T21:38:18.816Z,56.00
2018-06-25T21:40:47.245Z,55.60
2018-06-25T21:43:15.700Z,56.10
2018-06-25T21:45:44.127Z,56.90
2018-06-25T21:48:12.498Z,57.50
2018-06-25T21:50:40.905Z,58.40
2018-06-25T21:53:09.857Z,59.30
2018-06-25T21:55:38.247Z,60.10
2018-06-25T21:58:06.665Z,60.50
2018-06-25T22:00:48.870Z,62.10
2018-06-25T22:03:17.558Z,63.00
2018-06-25T22:05:46.442Z,63.30
2018-06-25T22:08:14.830Z,63.70
2018-06-25T22:15:39.479Z,65.20
2018-06-25T22:18:08.784Z,65.70
2018-06-25T22:20:37.437Z,66.60
2018-06-25T22:23:06.034Z,66.80
2018-06-25T22:25:34.450Z,67.30
2018-06-25T22:28:02.889Z,68.40
2018-06-25T22:30:31.301Z,68.40
2018-06-25T22:32:59.763Z,68.80
2018-06-25T22:35:28.225Z,69.20
2018-06-25T22:37:56.614Z,69.80
2018-06-25T22:40:25.080Z,70.00
2018-06-25T22:42:53.530Z,70.70
2018-06-25T22:45:21.930Z,69.90
2018-06-25T22:47:50.347Z,70.50
2018-06-25T22:50:18.801Z,71.40
2018-06-25T22:52:47.190Z,71.30
2018-06-25T22:55:15.592Z,71.20
2018-06-25T22:57:43.991Z,72.00
2018-06-25T23:00:12.381Z,72.50
2018-06-25T23:02:41.118Z,72.90
2018-06-25T23:05:09.526Z,72.70
2018-06-25T23:10:06.097Z,73.30
2018-06-25T23:12:34.510Z,73.80
2018-06-25T23:15:02.965Z,73.80
2018-06-25T23:17:31.363Z,74.00
2018-06-25T23:19:59.809Z,74.10
2018-06-25T23:22:28.225Z,74.30
2018-06-25T23:24:56.599Z,74.30
2018-06-25T23:27:25.063Z,74.10
2018-06-25T23:29:53.495Z,74.60
2018-06-25T23:32:22.019Z,74.70
2018-06-25T23:34:50.569Z,74.80
2018-06-25T23:37:19.020Z,74.70
2018-06-25T23:39:47.380Z,75.00
2018-06-25T23:42:15.806Z,75.50
2018-06-25T23:44:44.218Z,75.80
2018-06-25T23:47:12.601Z,76.20
2018-06-25T23:49:41.066Z,76.20
2018-06-25T23:52:09.551Z,76.20
2018-06-25T23:54:37.956Z,76.20
2018-06-25T23:57:06.437Z,76.20
2018-06-25T23:59:34.832Z,76.20
